sensor_id;sensor_type;location;lat;lon;timestamp;P1;durP1;ratioP1;P2;durP2;ratioP2
19804;SDS011;10062;51.052;13.756;2023-05-15T00:02:23;5.63;;;3.20;;
19804;SDS011;10062;51.052;13.756;2023-05-15T00:04:55;5.57;;;3.50;;
19804;SDS011;10062;51.052;13.756;2023-05-15T00:07:26;6.03;;;3.57;;
19804;SDS011;10062;51.052;13.756;2023-05-15T00:09:58;4.27;;;3.07;;
19804;SDS011;10062;51.052;13.756;2023-05-15T00:12:30;6.37;;;3.43;;
19804;SDS011;10062;51.052;13.756;2023-05-15T00:15:03;6.23;;;3.67;;
19804;SDS011;10062;51.052;13.756;2023-05-15T00:17:36;8.00;;;2.93;;
19804;SDS011;10062;51.052;13.756;2023-05-15T00:20:08;5.47;;;3.50;;
19804;SDS011;10062;51.052;13.756;2023-05-15T00:22:42;5.50;;;3.63;;
19804;SDS011;10062;51.052;13.756;2023-05-15T00:25:14;5.47;;;3.43;;
19804;SDS011;10062;51.052;13.756;2023-05-15T00:27:48;6.90;;;3.67;;
19804;SDS011;10062;51.052;13.756;2023-05-15T00:30:21;7.40;;;3.93;;
19804;SDS011;10062;51.052;13.756;2023-05-15T00:32:53;6.83;;;3.93;;
19804;SDS011;10062;51.052;13.756;2023-05-15T00:35:25;5.67;;;3.63;;
19804;SDS011;10062;51.052;13.756;2023-05-15T00:37:56;6.47;;;3.57;;
19804;SDS011;10062;51.052;13.756;2023-05-15T00:40:28;5.17;;;3.60;;
19804;SDS011;10062;51.052;13.756;2023-05-15T00:43:01;6.57;;;3.70;;
19804;SDS011;10062;51.052;13.756;2023-05-15T00:45:35;9.17;;;4.07;;
19804;SDS011;10062;51.052;13.756;2023-05-15T00:48:10;5.93;;;3.73;;
19804;SDS011;10062;51.052;13.756;2023-05-15T00:50:42;5.43;;;3.57;;
19804;SDS011;10062;51.052;13.756;2023-05-15T00:53:15;5.90;;;3.97;;
19804;SDS011;10062;51.052;13.756;2023-05-15T00:55:47;7.07;;;3.23;;
19804;SDS011;10062;51.052;13.756;2023-05-15T00:58:20;5.57;;;3.60;;
19804;SDS011;10062;51.052;13.756;2023-05-15T01:00:55;6.63;;;4.43;;
19804;SDS011;10062;51.052;13.756;2023-05-15T01:03:27;7.07;;;3.80;;
19804;SDS011;10062;51.052;13.756;2023-05-15T01:05:59;9.30;;;4.40;;
19804;SDS011;10062;51.052;13.756;2023-05-15T01:08:32;7.17;;;3.90;;
19804;SDS011;10062;51.052;13.756;2023-05-15T01:11:09;6.23;;;3.80;;
19804;SDS011;10062;51.052;13.756;2023-05-15T01:13:41;7.37;;;3.63;;
19804;SDS011;10062;51.052;13.756;2023-05-15T01:16:15;6.93;;;3.73;;
19804;SDS011;10062;51.052;13.756;2023-05-15T01:18:46;5.27;;;3.50;;
19804;SDS011;10062;51.052;13.756;2023-05-15T01:21:33;6.03;;;3.63;;
19804;SDS011;10062;51.052;13.756;2023-05-15T01:24:41;5.30;;;3.40;;
19804;SDS011;10062;51.052;13.756;2023-05-15T01:27:30;6.27;;;3.63;;
19804;SDS011;10062;51.052;13.756;2023-05-15T01:30:08;5.57;;;4.00;;
19804;SDS011;10062;51.052;13.756;2023-05-15T01:32:46;7.17;;;4.30;;
19804;SDS011;10062;51.052;13.756;2023-05-15T01:35:25;6.33;;;4.20;;
19804;SDS011;10062;51.052;13.756;2023-05-15T01:40:55;7.53;;;4.43;;
19804;SDS011;10062;51.052;13.756;2023-05-15T01:43:34;7.67;;;4.90;;
19804;SDS011;10062;51.052;13.756;2023-05-15T01:46:09;8.70;;;4.67;;
19804;SDS011;10062;51.052;13.756;2023-05-15T01:48:44;12.73;;;5.77;;
19804;SDS011;10062;51.052;13.756;2023-05-15T01:51:17;6.63;;;4.90;;
19804;SDS011;10062;51.052;13.756;2023-05-15T01:53:50;7.60;;;4.80;;
19804;SDS011;10062;51.052;13.756;2023-05-15T01:56:23;6.70;;;4.37;;
19804;SDS011;10062;51.052;13.756;2023-05-15T01:58:58;11.00;;;5.30;;
19804;SDS011;10062;51.052;13.756;2023-05-15T02:01:32;9.57;;;5.07;;
19804;SDS011;10062;51.052;13.756;2023-05-15T02:04:04;8.00;;;4.80;;
19804;SDS011;10062;51.052;13.756;2023-05-15T02:06:36;10.43;;;5.30;;
19804;SDS011;10062;51.052;13.756;2023-05-15T02:09:08;8.50;;;5.23;;
19804;SDS011;10062;51.052;13.756;2023-05-15T02:11:41;8.90;;;5.37;;
19804;SDS011;10062;51.052;13.756;2023-05-15T02:14:14;7.40;;;3.77;;
19804;SDS011;10062;51.052;13.756;2023-05-15T02:16:47;9.50;;;4.93;;
19804;SDS011;10062;51.052;13.756;2023-05-15T02:19:18;8.40;;;4.73;;
19804;SDS011;10062;51.052;13.756;2023-05-15T02:21:50;7.83;;;4.80;;
19804;SDS011;10062;51.052;13.756;2023-05-15T02:24:22;7.23;;;4.30;;
19804;SDS011;10062;51.052;13.756;2023-05-15T02:26:55;8.53;;;5.47;;
19804;SDS011;10062;51.052;13.756;2023-05-15T02:29:33;10.53;;;5.00;;
19804;SDS011;10062;51.052;13.756;2023-05-15T02:32:12;9.60;;;4.60;;
19804;SDS011;10062;51.052;13.756;2023-05-15T02:34:54;8.40;;;5.00;;
19804;SDS011;10062;51.052;13.756;2023-05-15T02:37:34;7.40;;;4.77;;
19804;SDS011;10062;51.052;13.756;2023-05-15T02:40:08;6.80;;;4.30;;
19804;SDS011;10062;51.052;13.756;2023-05-15T02:42:42;8.40;;;4.80;;
19804;SDS011;10062;51.052;13.756;2023-05-15T02:45:17;7.73;;;5.03;;
19804;SDS011;10062;51.052;13.756;2023-05-15T02:47:49;7.37;;;5.10;;
19804;SDS011;10062;51.052;13.756;2023-05-15T02:50:22;8.30;;;4.77;;
19804;SDS011;10062;51.052;13.756;2023-05-15T02:53:00;6.70;;;4.73;;
19804;SDS011;10062;51.052;13.756;2023-05-15T02:55:32;7.43;;;5.17;;
19804;SDS011;10062;51.052;13.756;2023-05-15T02:58:04;6.67;;;4.53;;
19804;SDS011;10062;51.052;13.756;2023-05-15T03:00:38;9.60;;;5.10;;
19804;SDS011;10062;51.052;13.756;2023-05-15T03:03:09;9.80;;;5.00;;
19804;SDS011;10062;51.052;13.756;2023-05-15T03:05:41;8.13;;;5.40;;
19804;SDS011;10062;51.052;13.756;2023-05-15T03:08:13;8.67;;;5.27;;
19804;SDS011;10062;51.052;13.756;2023-05-15T03:10:45;8.27;;;5.00;;
19804;SDS011;10062;51.052;13.756;2023-05-15T03:13:16;7.13;;;4.40;;
19804;SDS011;10062;51.052;13.756;2023-05-15T03:15:49;8.80;;;4.90;;
19804;SDS011;10062;51.052;13.756;2023-05-15T03:18:22;9.40;;;5.70;;
19804;SDS011;10062;51.052;13.756;2023-05-15T03:20:53;8.80;;;5.20;;
19804;SDS011;10062;51.052;13.756;2023-05-15T03:23:25;10.93;;;5.13;;
19804;SDS011;10062;51.052;13.756;2023-05-15T03:25:57;6.83;;;4.43;;
19804;SDS011;10062;51.052;13.756;2023-05-15T03:28:29;8.60;;;5.33;;
19804;SDS011;10062;51.052;13.756;2023-05-15T03:31:03;7.33;;;4.73;;
19804;SDS011;10062;51.052;13.756;2023-05-15T03:33:34;9.03;;;4.47;;
19804;SDS011;10062;51.052;13.756;2023-05-15T03:36:06;7.47;;;4.70;;
19804;SDS011;10062;51.052;13.756;2023-05-15T03:38:38;8.73;;;4.63;;
19804;SDS011;10062;51.052;13.756;2023-05-15T03:41:11;6.53;;;4.37;;
19804;SDS011;10062;51.052;13.756;2023-05-15T03:43:43;5.50;;;3.97;;
19804;SDS011;10062;51.052;13.756;2023-05-15T03:46:16;8.47;;;4.50;;
19804;SDS011;10062;51.052;13.756;2023-05-15T03:48:48;8.67;;;5.40;;
19804;SDS011;10062;51.052;13.756;2023-05-15T03:51:20;7.47;;;4.57;;
19804;SDS011;10062;51.052;13.756;2023-05-15T03:53:56;8.30;;;4.73;;
19804;SDS011;10062;51.052;13.756;2023-05-15T03:56:28;7.43;;;4.00;;
19804;SDS011;10062;51.052;13.756;2023-05-15T03:59:01;8.83;;;3.80;;
19804;SDS011;10062;51.052;13.756;2023-05-15T04:01:34;10.40;;;5.23;;
19804;SDS011;10062;51.052;13.756;2023-05-15T04:04:05;9.23;;;4.70;;
19804;SDS011;10062;51.052;13.756;2023-05-15T04:06:37;8.03;;;4.27;;
19804;SDS011;10062;51.052;13.756;2023-05-15T04:09:09;6.03;;;4.00;;
19804;SDS011;10062;51.052;13.756;2023-05-15T04:11:40;10.07;;;4.53;;
19804;SDS011;10062;51.052;13.756;2023-05-15T04:14:13;8.93;;;5.00;;
19804;SDS011;10062;51.052;13.756;2023-05-15T04:16:46;7.03;;;4.40;;
19804;SDS011;10062;51.052;13.756;2023-05-15T04:19:17;8.23;;;4.30;;
19804;SDS011;10062;51.052;13.756;2023-05-15T04:21:49;6.87;;;4.67;;
19804;SDS011;10062;51.052;13.756;2023-05-15T04:24:20;6.60;;;4.30;;
19804;SDS011;10062;51.052;13.756;2023-05-15T04:26:52;7.40;;;4.90;;
19804;SDS011;10062;51.052;13.756;2023-05-15T04:29:24;7.17;;;4.27;;
19804;SDS011;10062;51.052;13.756;2023-05-15T04:31:56;10.77;;;6.97;;
19804;SDS011;10062;51.052;13.756;2023-05-15T04:34:29;8.47;;;5.27;;
19804;SDS011;10062;51.052;13.756;2023-05-15T04:37:00;10.43;;;7.07;;
19804;SDS011;10062;51.052;13.756;2023-05-15T04:39:32;7.90;;;5.33;;
19804;SDS011;10062;51.052;13.756;2023-05-15T04:42:04;7.00;;;4.20;;
19804;SDS011;10062;51.052;13.756;2023-05-15T04:44:36;8.50;;;4.47;;
19804;SDS011;10062;51.052;13.756;2023-05-15T04:47:09;7.53;;;4.67;;
19804;SDS011;10062;51.052;13.756;2023-05-15T04:49:40;7.47;;;4.67;;
19804;SDS011;10062;51.052;13.756;2023-05-15T04:52:12;6.60;;;4.40;;
19804;SDS011;10062;51.052;13.756;2023-05-15T04:54:44;10.97;;;4.87;;
19804;SDS011;10062;51.052;13.756;2023-05-15T04:57:17;9.10;;;5.20;;
19804;SDS011;10062;51.052;13.756;2023-05-15T04:59:48;7.17;;;4.53;;
19804;SDS011;10062;51.052;13.756;2023-05-15T05:02:21;8.30;;;4.70;;
19804;SDS011;10062;51.052;13.756;2023-05-15T05:04:53;6.90;;;4.53;;
19804;SDS011;10062;51.052;13.756;2023-05-15T05:07:25;8.70;;;5.13;;
19804;SDS011;10062;51.052;13.756;2023-05-15T05:09:57;9.87;;;4.70;;
19804;SDS011;10062;51.052;13.756;2023-05-15T05:12:28;8.40;;;5.57;;
19804;SDS011;10062;51.052;13.756;2023-05-15T05:15:00;11.20;;;6.30;;
19804;SDS011;10062;51.052;13.756;2023-05-15T05:17:33;9.83;;;5.10;;
19804;SDS011;10062;51.052;13.756;2023-05-15T05:20:05;7.03;;;4.47;;
19804;SDS011;10062;51.052;13.756;2023-05-15T05:22:39;7.73;;;5.13;;
19804;SDS011;10062;51.052;13.756;2023-05-15T05:25:11;7.00;;;5.40;;
19804;SDS011;10062;51.052;13.756;2023-05-15T05:27:43;9.10;;;4.83;;
19804;SDS011;10062;51.052;13.756;2023-05-15T05:30:14;7.90;;;5.20;;
19804;SDS011;10062;51.052;13.756;2023-05-15T05:32:47;7.07;;;4.60;;
19804;SDS011;10062;51.052;13.756;2023-05-15T05:35:19;7.30;;;4.40;;
19804;SDS011;10062;51.052;13.756;2023-05-15T05:37:51;8.87;;;5.53;;
19804;SDS011;10062;51.052;13.756;2023-05-15T05:40:22;9.73;;;5.00;;
19804;SDS011;10062;51.052;13.756;2023-05-15T05:42:57;11.37;;;5.30;;
19804;SDS011;10062;51.052;13.756;2023-05-15T05:45:29;10.40;;;5.67;;
19804;SDS011;10062;51.052;13.756;2023-05-15T05:48:02;8.23;;;4.87;;
19804;SDS011;10062;51.052;13.756;2023-05-15T05:50:34;9.87;;;5.40;;
19804;SDS011;10062;51.052;13.756;2023-05-15T05:53:06;9.43;;;6.43;;
19804;SDS011;10062;51.052;13.756;2023-05-15T05:55:37;10.00;;;6.30;;
19804;SDS011;10062;51.052;13.756;2023-05-15T05:58:09;8.93;;;5.40;;
19804;SDS011;10062;51.052;13.756;2023-05-15T06:00:41;8.97;;;5.83;;
19804;SDS011;10062;51.052;13.756;2023-05-15T06:03:14;23.77;;;14.87;;
19804;SDS011;10062;51.052;13.756;2023-05-15T06:05:46;21.07;;;13.63;;
19804;SDS011;10062;51.052;13.756;2023-05-15T06:08:18;10.03;;;6.43;;
19804;SDS011;10062;51.052;13.756;2023-05-15T06:10:50;8.93;;;6.17;;
19804;SDS011;10062;51.052;13.756;2023-05-15T06:13:21;20.20;;;13.90;;
19804;SDS011;10062;51.052;13.756;2023-05-15T06:15:53;9.50;;;6.80;;
19804;SDS011;10062;51.052;13.756;2023-05-15T06:18:26;9.93;;;6.37;;
19804;SDS011;10062;51.052;13.756;2023-05-15T06:20:58;11.13;;;6.80;;
19804;SDS011;10062;51.052;13.756;2023-05-15T06:23:30;13.43;;;6.57;;
19804;SDS011;10062;51.052;13.756;2023-05-15T06:26:02;13.17;;;7.10;;
19804;SDS011;10062;51.052;13.756;2023-05-15T06:28:34;10.27;;;6.73;;
19804;SDS011;10062;51.052;13.756;2023-05-15T06:31:06;11.13;;;6.10;;
19804;SDS011;10062;51.052;13.756;2023-05-15T06:33:39;14.27;;;7.07;;
19804;SDS011;10062;51.052;13.756;2023-05-15T06:36:10;15.03;;;7.17;;
19804;SDS011;10062;51.052;13.756;2023-05-15T06:38:42;16.53;;;6.83;;
19804;SDS011;10062;51.052;13.756;2023-05-15T06:41:13;14.23;;;6.07;;
19804;SDS011;10062;51.052;13.756;2023-05-15T06:43:45;11.37;;;6.03;;
19804;SDS011;10062;51.052;13.756;2023-05-15T06:46:17;12.70;;;5.53;;
19804;SDS011;10062;51.052;13.756;2023-05-15T06:48:50;9.23;;;6.10;;
19804;SDS011;10062;51.052;13.756;2023-05-15T06:51:22;10.60;;;5.57;;
19804;SDS011;10062;51.052;13.756;2023-05-15T06:53:54;17.23;;;5.90;;
19804;SDS011;10062;51.052;13.756;2023-05-15T06:56:35;10.03;;;6.33;;
19804;SDS011;10062;51.052;13.756;2023-05-15T06:59:07;10.30;;;6.27;;
19804;SDS011;10062;51.052;13.756;2023-05-15T07:01:39;8.27;;;5.53;;
19804;SDS011;10062;51.052;13.756;2023-05-15T07:04:11;9.60;;;6.23;;
19804;SDS011;10062;51.052;13.756;2023-05-15T07:06:43;12.73;;;5.73;;
19804;SDS011;10062;51.052;13.756;2023-05-15T07:09:15;13.17;;;6.33;;
19804;SDS011;10062;51.052;13.756;2023-05-15T07:11:48;13.37;;;7.57;;
19804;SDS011;10062;51.052;13.756;2023-05-15T07:14:19;9.43;;;6.77;;
19804;SDS011;10062;51.052;13.756;2023-05-15T07:16:51;11.27;;;6.80;;
19804;SDS011;10062;51.052;13.756;2023-05-15T07:19:23;8.83;;;6.50;;
19804;SDS011;10062;51.052;13.756;2023-05-15T07:21:54;10.83;;;6.73;;
19804;SDS011;10062;51.052;13.756;2023-05-15T07:24:26;11.73;;;7.07;;
19804;SDS011;10062;51.052;13.756;2023-05-15T07:26:59;10.33;;;7.37;;
19804;SDS011;10062;51.052;13.756;2023-05-15T07:29:30;12.77;;;6.90;;
19804;SDS011;10062;51.052;13.756;2023-05-15T07:32:02;9.83;;;6.03;;
19804;SDS011;10062;51.052;13.756;2023-05-15T07:34:34;18.87;;;7.00;;
19804;SDS011;10062;51.052;13.756;2023-05-15T07:37:06;12.80;;;6.00;;
19804;SDS011;10062;51.052;13.756;2023-05-15T07:39:38;11.17;;;6.43;;
19804;SDS011;10062;51.052;13.756;2023-05-15T07:42:11;10.13;;;6.70;;
19804;SDS011;10062;51.052;13.756;2023-05-15T07:44:43;11.77;;;6.27;;
19804;SDS011;10062;51.052;13.756;2023-05-15T07:47:15;8.87;;;6.00;;
19804;SDS011;10062;51.052;13.756;2023-05-15T07:49:47;9.77;;;5.77;;
19804;SDS011;10062;51.052;13.756;2023-05-15T07:52:18;9.07;;;6.27;;
19804;SDS011;10062;51.052;13.756;2023-05-15T07:54:50;16.53;;;7.03;;
19804;SDS011;10062;51.052;13.756;2023-05-15T07:57:23;9.80;;;5.83;;
19804;SDS011;10062;51.052;13.756;2023-05-15T07:59:55;10.50;;;6.40;;
19804;SDS011;10062;51.052;13.756;2023-05-15T08:02:27;7.87;;;5.67;;
19804;SDS011;10062;51.052;13.756;2023-05-15T08:04:58;12.97;;;6.13;;
19804;SDS011;10062;51.052;13.756;2023-05-15T08:07:30;8.80;;;5.70;;
19804;SDS011;10062;51.052;13.756;2023-05-15T08:10:02;14.17;;;6.27;;
19804;SDS011;10062;51.052;13.756;2023-05-15T08:12:36;6.87;;;5.17;;
19804;SDS011;10062;51.052;13.756;2023-05-15T08:15:08;9.93;;;5.87;;
19804;SDS011;10062;51.052;13.756;2023-05-15T08:17:40;10.73;;;6.17;;
19804;SDS011;10062;51.052;13.756;2023-05-15T08:20:12;11.27;;;6.40;;
19804;SDS011;10062;51.052;13.756;2023-05-15T08:22:44;11.50;;;6.43;;
19804;SDS011;10062;51.052;13.756;2023-05-15T08:25:15;12.03;;;6.50;;
19804;SDS011;10062;51.052;13.756;2023-05-15T08:27:48;10.93;;;6.33;;
19804;SDS011;10062;51.052;13.756;2023-05-15T08:30:20;8.60;;;6.40;;
19804;SDS011;10062;51.052;13.756;2023-05-15T08:32:52;13.17;;;6.63;;
19804;SDS011;10062;51.052;13.756;2023-05-15T08:35:24;14.00;;;6.60;;
19804;SDS011;10062;51.052;13.756;2023-05-15T08:37:56;10.23;;;6.50;;
19804;SDS011;10062;51.052;13.756;2023-05-15T08:40:27;10.70;;;6.70;;
19804;SDS011;10062;51.052;13.756;2023-05-15T08:43:02;9.27;;;6.17;;
19804;SDS011;10062;51.052;13.756;2023-05-15T08:45:36;9.40;;;6.60;;
19804;SDS011;10062;51.052;13.756;2023-05-15T08:48:08;13.80;;;7.23;;
19804;SDS011;10062;51.052;13.756;2023-05-15T08:50:43;9.40;;;6.87;;
19804;SDS011;10062;51.052;13.756;2023-05-15T08:53:15;10.73;;;6.47;;
19804;SDS011;10062;51.052;13.756;2023-05-15T08:55:48;9.03;;;6.83;;
19804;SDS011;10062;51.052;13.756;2023-05-15T08:58:21;8.97;;;6.10;;
19804;SDS011;10062;51.052;13.756;2023-05-15T09:00:55;11.57;;;6.47;;
19804;SDS011;10062;51.052;13.756;2023-05-15T09:03:27;10.27;;;6.83;;
19804;SDS011;10062;51.052;13.756;2023-05-15T09:05:59;10.13;;;6.97;;
19804;SDS011;10062;51.052;13.756;2023-05-15T09:08:31;10.50;;;6.70;;
19804;SDS011;10062;51.052;13.756;2023-05-15T09:11:03;8.23;;;6.77;;
19804;SDS011;10062;51.052;13.756;2023-05-15T09:13:38;12.40;;;6.30;;
19804;SDS011;10062;51.052;13.756;2023-05-15T09:16:09;9.10;;;6.23;;
19804;SDS011;10062;51.052;13.756;2023-05-15T09:18:41;10.20;;;6.80;;
19804;SDS011;10062;51.052;13.756;2023-05-15T09:21:20;12.97;;;7.47;;
19804;SDS011;10062;51.052;13.756;2023-05-15T09:23:53;12.97;;;7.20;;
19804;SDS011;10062;51.052;13.756;2023-05-15T09:26:26;11.10;;;7.27;;
19804;SDS011;10062;51.052;13.756;2023-05-15T09:29:02;14.13;;;8.33;;
19804;SDS011;10062;51.052;13.756;2023-05-15T09:31:34;9.90;;;6.80;;
19804;SDS011;10062;51.052;13.756;2023-05-15T09:34:05;10.80;;;7.63;;
19804;SDS011;10062;51.052;13.756;2023-05-15T09:36:41;11.30;;;7.57;;
19804;SDS011;10062;51.052;13.756;2023-05-15T09:39:13;10.80;;;7.90;;
19804;SDS011;10062;51.052;13.756;2023-05-15T09:41:52;10.33;;;6.97;;
19804;SDS011;10062;51.052;13.756;2023-05-15T09:44:25;12.37;;;7.73;;
19804;SDS011;10062;51.052;13.756;2023-05-15T09:46:57;13.97;;;8.33;;
19804;SDS011;10062;51.052;13.756;2023-05-15T09:49:29;9.80;;;7.57;;
19804;SDS011;10062;51.052;13.756;2023-05-15T09:52:02;10.80;;;7.17;;
19804;SDS011;10062;51.052;13.756;2023-05-15T09:54:37;9.03;;;6.90;;
19804;SDS011;10062;51.052;13.756;2023-05-15T09:57:09;15.40;;;7.07;;
19804;SDS011;10062;51.052;13.756;2023-05-15T09:59:44;8.63;;;6.67;;
19804;SDS011;10062;51.052;13.756;2023-05-15T10:02:23;12.90;;;6.30;;
19804;SDS011;10062;51.052;13.756;2023-05-15T10:05:00;8.83;;;6.43;;
19804;SDS011;10062;51.052;13.756;2023-05-15T10:07:32;10.43;;;6.13;;
19804;SDS011;10062;51.052;13.756;2023-05-15T10:10:05;10.50;;;6.30;;
19804;SDS011;10062;51.052;13.756;2023-05-15T10:12:38;7.57;;;5.80;;
19804;SDS011;10062;51.052;13.756;2023-05-15T10:15:11;9.93;;;5.50;;
19804;SDS011;10062;51.052;13.756;2023-05-15T10:17:44;8.47;;;6.20;;
19804;SDS011;10062;51.052;13.756;2023-05-15T10:20:18;8.37;;;6.43;;
19804;SDS011;10062;51.052;13.756;2023-05-15T10:22:51;8.10;;;5.87;;
19804;SDS011;10062;51.052;13.756;2023-05-15T10:25:25;10.47;;;6.10;;
19804;SDS011;10062;51.052;13.756;2023-05-15T10:28:03;8.77;;;6.30;;
19804;SDS011;10062;51.052;13.756;2023-05-15T10:30:39;9.43;;;6.53;;
19804;SDS011;10062;51.052;13.756;2023-05-15T10:33:13;16.20;;;7.80;;
19804;SDS011;10062;51.052;13.756;2023-05-15T10:35:45;11.83;;;9.03;;
19804;SDS011;10062;51.052;13.756;2023-05-15T10:38:19;12.87;;;9.80;;
19804;SDS011;10062;51.052;13.756;2023-05-15T10:40:51;9.18;;;6.57;;
19804;SDS011;10062;51.052;13.756;2023-05-15T10:43:23;13.82;;;8.30;;
19804;SDS011;10062;51.052;13.756;2023-05-15T10:45:57;12.20;;;7.25;;
19804;SDS011;10062;51.052;13.756;2023-05-15T10:48:29;12.05;;;5.28;;
19804;SDS011;10062;51.052;13.756;2023-05-15T10:51:02;8.90;;;5.25;;
19804;SDS011;10062;51.052;13.756;2023-05-15T10:53:34;10.20;;;4.68;;
19804;SDS011;10062;51.052;13.756;2023-05-15T10:56:08;8.48;;;4.97;;
19804;SDS011;10062;51.052;13.756;2023-05-15T10:58:43;10.13;;;5.07;;
19804;SDS011;10062;51.052;13.756;2023-05-15T11:01:24;10.30;;;4.93;;
19804;SDS011;10062;51.052;13.756;2023-05-15T11:04:07;8.88;;;5.50;;
19804;SDS011;10062;51.052;13.756;2023-05-15T11:06:41;6.55;;;4.82;;
19804;SDS011;10062;51.052;13.756;2023-05-15T11:09:35;6.65;;;5.10;;
19804;SDS011;10062;51.052;13.756;2023-05-15T11:12:08;6.47;;;4.15;;
19804;SDS011;10062;51.052;13.756;2023-05-15T11:14:41;6.60;;;4.75;;
19804;SDS011;10062;51.052;13.756;2023-05-15T11:17:14;7.90;;;4.82;;
19804;SDS011;10062;51.052;13.756;2023-05-15T11:19:55;5.93;;;5.00;;
19804;SDS011;10062;51.052;13.756;2023-05-15T11:22:30;8.43;;;6.22;;
19804;SDS011;10062;51.052;13.756;2023-05-15T11:25:05;6.18;;;4.82;;
19804;SDS011;10062;51.052;13.756;2023-05-15T11:27:39;8.68;;;5.20;;
19804;SDS011;10062;51.052;13.756;2023-05-15T11:30:12;6.95;;;5.10;;
19804;SDS011;10062;51.052;13.756;2023-05-15T11:32:49;8.07;;;4.65;;
19804;SDS011;10062;51.052;13.756;2023-05-15T11:35:25;8.77;;;5.72;;
19804;SDS011;10062;51.052;13.756;2023-05-15T11:37:58;9.35;;;6.05;;
19804;SDS011;10062;51.052;13.756;2023-05-15T11:40:42;14.25;;;7.30;;
19804;SDS011;10062;51.052;13.756;2023-05-15T11:43:16;11.52;;;9.40;;
19804;SDS011;10062;51.052;13.756;2023-05-15T11:45:50;13.88;;;6.90;;
19804;SDS011;10062;51.052;13.756;2023-05-15T11:48:29;15.00;;;7.72;;
19804;SDS011;10062;51.052;13.756;2023-05-15T11:51:02;13.85;;;6.05;;
19804;SDS011;10062;51.052;13.756;2023-05-15T11:53:35;13.77;;;5.90;;
19804;SDS011;10062;51.052;13.756;2023-05-15T11:56:11;12.93;;;6.07;;
19804;SDS011;10062;51.052;13.756;2023-05-15T11:58:47;7.80;;;6.00;;
19804;SDS011;10062;51.052;13.756;2023-05-15T12:01:19;12.10;;;6.30;;
19804;SDS011;10062;51.052;13.756;2023-05-15T12:03:52;8.07;;;5.93;;
19804;SDS011;10062;51.052;13.756;2023-05-15T12:06:23;8.80;;;6.50;;
19804;SDS011;10062;51.052;13.756;2023-05-15T12:08:56;11.07;;;7.40;;
19804;SDS011;10062;51.052;13.756;2023-05-15T12:11:28;18.77;;;9.07;;
19804;SDS011;10062;51.052;13.756;2023-05-15T12:14:00;16.23;;;8.80;;
19804;SDS011;10062;51.052;13.756;2023-05-15T12:16:32;11.60;;;8.03;;
19804;SDS011;10062;51.052;13.756;2023-05-15T12:19:05;12.40;;;8.23;;
19804;SDS011;10062;51.052;13.756;2023-05-15T12:21:36;13.37;;;8.00;;
19804;SDS011;10062;51.052;13.756;2023-05-15T12:24:12;14.57;;;7.83;;
19804;SDS011;10062;51.052;13.756;2023-05-15T12:26:44;11.33;;;7.43;;
19804;SDS011;10062;51.052;13.756;2023-05-15T12:29:15;12.27;;;8.23;;
19804;SDS011;10062;51.052;13.756;2023-05-15T12:31:47;14.10;;;8.00;;
19804;SDS011;10062;51.052;13.756;2023-05-15T12:34:24;10.67;;;7.90;;
19804;SDS011;10062;51.052;13.756;2023-05-15T12:36:56;11.33;;;8.30;;
19804;SDS011;10062;51.052;13.756;2023-05-15T12:39:29;13.47;;;7.13;;
19804;SDS011;10062;51.052;13.756;2023-05-15T12:42:02;9.87;;;7.70;;
19804;SDS011;10062;51.052;13.756;2023-05-15T12:44:33;11.27;;;7.93;;
19804;SDS011;10062;51.052;13.756;2023-05-15T12:47:06;12.17;;;8.27;;
19804;SDS011;10062;51.052;13.756;2023-05-15T12:49:40;11.27;;;8.33;;
19804;SDS011;10062;51.052;13.756;2023-05-15T12:52:13;13.03;;;9.53;;
19804;SDS011;10062;51.052;13.756;2023-05-15T12:54:45;11.97;;;9.33;;
19804;SDS011;10062;51.052;13.756;2023-05-15T12:57:17;11.30;;;8.53;;
19804;SDS011;10062;51.052;13.756;2023-05-15T12:59:49;10.83;;;8.10;;
19804;SDS011;10062;51.052;13.756;2023-05-15T13:02:21;10.07;;;7.93;;
19804;SDS011;10062;51.052;13.756;2023-05-15T13:04:54;11.67;;;8.67;;
19804;SDS011;10062;51.052;13.756;2023-05-15T13:07:26;9.17;;;6.50;;
19804;SDS011;10062;51.052;13.756;2023-05-15T13:10:03;8.73;;;6.20;;
19804;SDS011;10062;51.052;13.756;2023-05-15T13:12:36;9.73;;;6.93;;
19804;SDS011;10062;51.052;13.756;2023-05-15T13:15:20;8.97;;;7.47;;
19804;SDS011;10062;51.052;13.756;2023-05-15T13:17:56;12.60;;;7.23;;
19804;SDS011;10062;51.052;13.756;2023-05-15T13:20:32;10.50;;;7.07;;
19804;SDS011;10062;51.052;13.756;2023-05-15T13:23:05;9.77;;;7.50;;
19804;SDS011;10062;51.052;13.756;2023-05-15T13:25:37;10.57;;;6.67;;
19804;SDS011;10062;51.052;13.756;2023-05-15T13:28:09;9.20;;;7.50;;
19804;SDS011;10062;51.052;13.756;2023-05-15T13:30:42;9.77;;;6.90;;
19804;SDS011;10062;51.052;13.756;2023-05-15T13:33:14;11.27;;;6.67;;
19804;SDS011;10062;51.052;13.756;2023-05-15T13:35:47;16.60;;;7.40;;
19804;SDS011;10062;51.052;13.756;2023-05-15T13:38:18;11.90;;;7.50;;
19804;SDS011;10062;51.052;13.756;2023-05-15T13:40:50;17.93;;;13.10;;
19804;SDS011;10062;51.052;13.756;2023-05-15T13:43:22;15.97;;;11.17;;
19804;SDS011;10062;51.052;13.756;2023-05-15T13:45:54;25.87;;;19.93;;
19804;SDS011;10062;51.052;13.756;2023-05-15T13:48:25;59.10;;;39.23;;
19804;SDS011;10062;51.052;13.756;2023-05-15T13:50:58;25.13;;;17.10;;
19804;SDS011;10062;51.052;13.756;2023-05-15T13:53:30;11.10;;;8.57;;
19804;SDS011;10062;51.052;13.756;2023-05-15T13:56:01;13.30;;;8.43;;
19804;SDS011;10062;51.052;13.756;2023-05-15T13:58:33;11.43;;;8.13;;
19804;SDS011;10062;51.052;13.756;2023-05-15T14:01:05;11.13;;;7.93;;
19804;SDS011;10062;51.052;13.756;2023-05-15T14:03:37;14.77;;;7.77;;
19804;SDS011;10062;51.052;13.756;2023-05-15T14:06:09;9.07;;;6.63;;
19804;SDS011;10062;51.052;13.756;2023-05-15T14:08:41;12.77;;;8.17;;
19804;SDS011;10062;51.052;13.756;2023-05-15T14:11:13;14.47;;;8.77;;
19804;SDS011;10062;51.052;13.756;2023-05-15T14:13:45;10.50;;;8.27;;
19804;SDS011;10062;51.052;13.756;2023-05-15T14:16:16;11.00;;;7.57;;
19804;SDS011;10062;51.052;13.756;2023-05-15T14:18:48;12.67;;;8.17;;
19804;SDS011;10062;51.052;13.756;2023-05-15T14:21:21;11.47;;;8.30;;
19804;SDS011;10062;51.052;13.756;2023-05-15T14:23:53;10.70;;;7.90;;
19804;SDS011;10062;51.052;13.756;2023-05-15T14:26:25;11.20;;;7.03;;
19804;SDS011;10062;51.052;13.756;2023-05-15T14:28:57;13.17;;;8.10;;
19804;SDS011;10062;51.052;13.756;2023-05-15T14:31:28;10.40;;;8.70;;
19804;SDS011;10062;51.052;13.756;2023-05-15T14:34:00;14.00;;;9.63;;
19804;SDS011;10062;51.052;13.756;2023-05-15T14:36:33;18.27;;;11.90;;
19804;SDS011;10062;51.052;13.756;2023-05-15T14:39:05;16.40;;;13.77;;
19804;SDS011;10062;51.052;13.756;2023-05-15T14:41:36;10.53;;;8.60;;
19804;SDS011;10062;51.052;13.756;2023-05-15T14:44:08;11.20;;;8.33;;
19804;SDS011;10062;51.052;13.756;2023-05-15T14:46:40;9.77;;;7.13;;
19804;SDS011;10062;51.052;13.756;2023-05-15T14:49:12;19.90;;;14.53;;
19804;SDS011;10062;51.052;13.756;2023-05-15T14:51:45;10.90;;;7.77;;
19804;SDS011;10062;51.052;13.756;2023-05-15T14:54:17;24.03;;;17.80;;
19804;SDS011;10062;51.052;13.756;2023-05-15T14:56:48;10.10;;;8.00;;
19804;SDS011;10062;51.052;13.756;2023-05-15T14:59:20;10.50;;;7.80;;
19804;SDS011;10062;51.052;13.756;2023-05-15T15:01:52;9.33;;;5.93;;
19804;SDS011;10062;51.052;13.756;2023-05-15T15:04:24;8.60;;;5.27;;
19804;SDS011;10062;51.052;13.756;2023-05-15T15:07:01;11.47;;;5.70;;